• Join FlightAware (Why Join?)
  • Login
  • US Flag 
02:10AM EDT


 

Airport Tracker/Info


-or-


 

Live Flight TrackerFlight Track Log ✈ ASQ4255 ✈ 30-Jul-2013 ✈ KCHS - KEWR

Flight Track Log - Related Links

Times and Time Zones

All times are in EDT time to prevent confusion due to time zone crossing. See the ASQ4255 flight status page for this flight to view local times or setup timezone preferences in your user account.

Time Position Orientation Groundspeed Altitude Reporting Facility
EDT Latitude Longitude Course Direction KTS MPH feet Rate Location/Type
01:18PM 33.0000 -80.0072 13° North 226 260 5,100  Level Jacksonville Center
01:19PM 33.0642 -79.9853 16° North 248 285 7,900 2,400 Climbing Jacksonville Center
01:20PM 33.2379 -79.9291 North  Level FlightAware Approximate
01:20PM 33.1367 -79.9656 13° North 268 308 9,900  Level Jacksonville Center
01:21PM 33.3266 -79.9034 23° Northeast  Level FlightAware Approximate
01:21PM 33.2281 -79.9378 14° North 299 344 11,400  Level Jacksonville Center
01:22PM 33.4145 -79.8738 North  Level FlightAware Approximate
01:22PM 33.3214 -79.9147 12° North 324 373 13,500  Level Jacksonville Center
01:23PM 33.5043 -79.8512 13° North  Level FlightAware Approximate
01:23PM 33.4208 -79.8864 13° North 344 396 15,100  Level Jacksonville Center
01:24PM 33.5936 -79.8257 13° North  Level FlightAware Approximate
01:24PM 33.5267 -79.8581 13° North 364 419 16,500  Level Jacksonville Center
01:25PM 33.6303 -79.8269 14° North 376 433 17,800 1,320 Climbing Jacksonville Center
01:26PM 33.7381 -79.7983 12° North 386 444 19,200 1,500 Climbing Jacksonville Center
01:27PM 33.8436 -79.7694 13° North 386 444 20,800 1,500 Climbing Jacksonville Center
01:28PM 33.9494 -79.7408 13° North 391 450 22,300 1,500 Climbing Jacksonville Center
01:29PM 34.0569 -79.7067 15° North 391 450 23,800 1,500 Climbing Jacksonville Center
01:32PM 34.2906 -79.6514 11° North 373 429 27,300 1,500 Climbing Washington Center
01:33PM 34.3972 -79.6467 North 379 436 28,900 1,500 Climbing Washington Center
01:34PM 34.5017 -79.6417 North 374 430 30,300 960 Climbing Washington Center
01:35PM 34.6106 -79.6344 North 381 438 30,900 300 Climbing Washington Center
01:36PM 34.7256 -79.6275 North 393 452 31,000  Climbing Washington Center
01:37PM 34.8508 -79.6211 North 421 484 31,000  Level Washington Center
01:38PM 34.9764 -79.6122 North 443 510 31,000  Level Washington Center
01:39PM 35.1019 -79.6031 North 448 516 31,000  Level Washington Center
01:40PM 35.2222 -79.5583 17° North 448 516 31,000 420 Level Washington Center
01:41PM 35.3333 -79.4797 30° Northeast 438 504 31,900 1,260 Climbing Washington Center
01:42PM 35.4531 -79.3939 30° Northeast 450 518 33,500 1,380 Climbing Washington Center
01:43PM 35.5469 -79.3267 30° Northeast 445 512 34,700 720 Climbing Washington Center
01:44PM 35.6494 -79.2497 31° Northeast 428 493 35,000 120 Climbing Washington Center
01:45PM 35.7561 -79.1728 30° Northeast 433 498 35,000  Level Washington Center
01:46PM 35.8606 -79.0956 31° Northeast 438 504 35,000  Level Washington Center
01:47PM 35.9653 -79.0156 32° Northeast 438 504 35,000  Level Washington Center
01:48PM 36.0717 -78.9378 31° Northeast 438 504 35,000  Level Washington Center
01:49PM 36.1847 -78.8550 31° Northeast 433 498 35,000  Level Washington Center
01:50PM 36.2889 -78.7769 31° Northeast 433 498 35,000  Level Washington Center
01:51PM 36.3911 -78.7011 31° Northeast 433 498 35,000  Level Washington Center
01:52PM 36.4933 -78.6225 32° Northeast 433 498 35,000  Level Washington Center
01:53PM 36.5994 -78.5464 30° Northeast 433 498 35,000  Level Washington Center
01:54PM 36.6889 -78.4697 34° Northeast 433 498 35,000  Level Washington Center
01:55PM 36.7908 -78.3981 29° Northeast 428 493 35,000  Level Washington Center
01:56PM 36.8950 -78.3164 32° Northeast 428 493 35,000  Level Washington Center
01:57PM 37.0117 -78.2267 32° Northeast 439 505 35,000  Level Washington Center
01:58PM 37.0944 -78.1644 31° Northeast 439 505 35,000  Level Washington Center
01:59PM 37.2067 -78.0794 31° Northeast 433 498 35,000  Level Washington Center
02:00PM 37.3106 -77.9994 31° Northeast 433 498 35,000  Level Washington Center
02:01PM 37.3933 -77.9314 33° Northeast 433 498 35,000  Level Washington Center
02:02PM 37.5203 -77.8358 31° Northeast 433 498 35,000  Level Washington Center
02:03PM 37.6222 -77.7444 35° Northeast 438 504 35,000  Level Washington Center
02:04PM 37.7258 -77.6528 35° Northeast 443 510 35,000  Level Washington Center
02:05PM 37.8275 -77.5583 36° Northeast 448 516 35,000  Level Washington Center
02:06PM 37.9292 -77.4636 36° Northeast 454 522 35,000  Level Washington Center
02:07PM 38.0328 -77.3686 36° Northeast 454 522 35,000  Level Washington Center
02:08PM 38.1322 -77.2786 35° Northeast 454 522 35,000  Level Washington Center
02:09PM 38.2250 -77.1908 37° Northeast 460 529 35,000  Level Washington Center
02:10PM 38.3497 -77.0769 36° Northeast 455 524 35,000  Level Washington Center
02:11PM 38.4508 -76.9808 37° Northeast 455 524 35,000  Level Washington Center
02:12PM 38.5542 -76.8872 35° Northeast 455 524 35,000  Level Washington Center
02:13PM 38.6572 -76.7906 36° Northeast 455 524 35,000  Level Washington Center
02:14PM 38.7561 -76.6858 40° Northeast 455 524 35,000 -480 Level Washington Center
02:15PM 38.8508 -76.5753 42° Northeast 455 524 34,100 -1,320 Descending Washington Center
02:16PM 38.9308 -76.4828 42° Northeast 461 531 32,500 -2,100 Descending Washington Center
02:17PM 39.0486 -76.3481 42° Northeast 468 539 30,000 -2,340 Descending Washington Center
02:18PM 39.1492 -76.2314 42° Northeast 473 544 27,800 -1,560 Descending Washington Center
02:19PM 39.2394 -76.1303 41° Northeast 473 544 26,900 -420 Descending Washington Center
02:20PM 39.3358 -76.0128 43° Northeast 473 544 27,000  Climbing Washington Center
02:21PM 39.4319 -75.9033 41° Northeast 473 544 26,900 -660 Descending Washington Center
02:22PM 39.5281 -75.7853 43° Northeast 468 539 25,700 -1,620 Descending Washington Center
02:23PM 39.6219 -75.6778 41° Northeast 468 539 23,700 -2,160 Descending Washington Center
02:24PM 39.7136 -75.5672 43° Northeast 456 525 21,500 -2,220 Descending Washington Center
02:25PM 39.8072 -75.4564 42° Northeast 441 507 19,300 -2,100 Descending Washington Center
02:26PM 39.8925 -75.3508 44° Northeast 426 490 17,300 -2,280 Descending Washington Center
02:27PM 39.9736 -75.2531 43° Northeast 409 471 14,800 -2,520 Descending Washington Center
02:28PM 40.0522 -75.1578 43° Northeast 397 457 12,400 -1,920 Descending Washington Center
02:29PM 40.1269 -75.0650 43° Northeast 382 440 11,000 -1,260 Descending Washington Center
02:30PM 40.1911 -74.9858 43° Northeast 351 404 9,900 -1,200 Descending Washington Center
02:31PM 40.2833 -74.8667 45° Northeast 284 327 8,000 -780 Descending New York TRACON
02:32PM 40.3333 -74.7833 52° Northeast 288 331 7,900 -540 Descending New York TRACON
02:33PM 40.3500 -74.6833 78° East 290 334 6,900 -960 Descending New York TRACON
02:34PM 40.3667 -74.5667 79° East 281 323 6,000 -480 Descending New York TRACON
02:35PM 40.4167 -74.5167 37° Northeast 274 315 6,000  Level New York TRACON
02:36PM 40.4833 -74.4833 21° North 271 312 6,000  Level New York TRACON
02:37PM 40.5500 -74.5500 323° Northwest 263 303 6,000  Level New York TRACON
02:38PM 40.6000 -74.6167 315° West 262 302 6,000  Level New York TRACON
02:39PM 40.6667 -74.6333 349° North 272 313 6,000  Level New York TRACON
02:40PM 40.6833 -74.5833 66° East 214 246 6,000  Level New York TRACON
02:41PM 40.7333 -74.5333 37° Northeast 217 250 6,000  Level New York TRACON
02:42PM 40.8000 -74.5333 360° North 204 235 6,000  Level New York TRACON
02:43PM 40.8500 -74.5500 346° North 190 219 6,000 -360 Level New York TRACON
02:44PM 40.9000 -74.5500 360° North 192 221 5,300 -540 Descending New York TRACON
02:45PM 40.9500 -74.5500 360° North 186 214 5,000 -180 Descending New York TRACON
02:46PM 41.0000 -74.5167 27° Northeast 208 239 5,000  Level New York TRACON
02:47PM 41.0167 -74.4500 72° East 201 231 5,000  Level New York TRACON
02:48PM 41.0167 -74.3833 90° East 206 237 5,000  Level New York TRACON
02:49PM 40.9833 -74.3167 124° Southeast 205 236 5,000 -420 Level New York TRACON
02:50PM 40.9500 -74.2500 123° Southeast 206 237 4,200 -540 Descending New York TRACON
02:51PM 40.9333 -74.1833 108° East 201 231 4,000 -180 Descending New York TRACON
02:52PM 40.9000 -74.1167 123° Southeast 201 231 3,900 -480 Descending New York TRACON
02:53PM 40.8833 -74.0667 114° Southeast 205 236 3,100 -600 Descending New York TRACON
02:54PM 40.8333 -74.0833 194° South 172 198 2,800 -600 Descending New York TRACON
02:55PM 40.7833 -74.1000 194° South 167 192 1,900 -900 Descending New York TRACON
02:56PM 40.7500 -74.1333 217° Southwest 141 162 1,100 -780 Descending New York TRACON
02:57PM 40.7167 -74.1500 201° Southwest 139 160 400 -720 Descending New York TRACON